createdAt,value
2023-02-01T00:02:04.798Z,94956.38
2023-02-01T00:04:36.461Z,94962.22
2023-02-01T00:07:06.563Z,94963.84
2023-02-01T00:09:35.528Z,94965.81
2023-02-01T00:12:05.259Z,94966.81
2023-02-01T00:14:39.492Z,94962.91
2023-02-01T00:17:09.354Z,94974.72
2023-02-01T00:19:39.785Z,94972.09
2023-02-01T00:22:08.779Z,94966.41
2023-02-01T00:24:38.377Z,94959.47
2023-02-01T00:27:07.522Z,94961.31
2023-02-01T00:29:37.733Z,94974.34
2023-02-01T00:32:07.146Z,94975.16
2023-02-01T00:34:39.471Z,94970.13
2023-02-01T00:37:08.557Z,94973.09
2023-02-01T00:39:37.639Z,94971.19
2023-02-01T00:42:06.788Z,94968.22
2023-02-01T00:44:36.483Z,94960.75
2023-02-01T00:47:05.492Z,94964.47
2023-02-01T00:49:34.492Z,94964.16
2023-02-01T00:52:06.136Z,94956.09
2023-02-01T00:54:37.032Z,94958.69
2023-02-01T00:57:06.228Z,94950.88
2023-02-01T00:59:35.157Z,94947.28
2023-02-01T01:02:04.146Z,94950.66
2023-02-01T01:04:33.148Z,94942.69
2023-02-01T01:07:02.669Z,94948.25
2023-02-01T01:09:35.161Z,94944.19
2023-02-01T01:12:04.259Z,94946.97
2023-02-01T01:14:34.941Z,94955.72
2023-02-01T01:17:03.985Z,94947.91
2023-02-01T01:19:33.119Z,94947.63
2023-02-01T01:22:02.078Z,94945.53
2023-02-01T01:24:31.212Z,94949.28
2023-02-01T01:27:01.658Z,94947.88
2023-02-01T01:29:34.008Z,94948.69
2023-02-01T01:32:03.168Z,94961.03
2023-02-01T01:34:32.255Z,94957.69
2023-02-01T01:37:01.309Z,94953.72
2023-02-01T01:39:30.480Z,94954.72
2023-02-01T01:42:01.199Z,94959.41
2023-02-01T01:45:01.041Z,94964.91
2023-02-01T01:47:37.545Z,94957.47
2023-02-01T01:50:11.054Z,94956.81
2023-02-01T01:52:42.430Z,94944.94
2023-02-01T01:55:12.545Z,94933.75
2023-02-01T01:57:47.175Z,94934.59
2023-02-01T02:00:20.969Z,94925.63
2023-02-01T02:02:57.567Z,94927.09
2023-02-01T02:05:27.095Z,94927.59
2023-02-01T02:08:02.067Z,94933.28
2023-02-01T02:10:45.507Z,94941.09
2023-02-01T02:13:17.420Z,94947.13
2023-02-01T02:15:56.603Z,94943.06
2023-02-01T02:18:33.699Z,94960.63
2023-02-01T02:21:20.322Z,94961.53
2023-02-01T02:24:22.581Z,94962.69
2023-02-01T02:27:25.779Z,94956.88
2023-02-01T02:30:51.237Z,94960.13
2023-02-01T02:33:50.061Z,94949.47
2023-02-01T02:36:27.813Z,94945.56
2023-02-01T02:39:07.371Z,94950.59
2023-02-01T02:42:06.263Z,94945.56
2023-02-01T02:45:02.515Z,94943.06
2023-02-01T02:47:38.894Z,94936.75
2023-02-01T02:50:35.136Z,94935.94
2023-02-01T02:53:27.289Z,94931.72
2023-02-01T02:56:14.483Z,94935.31
2023-02-01T02:59:02.653Z,94940.66
2023-02-01T03:01:49.797Z,94943.25
2023-02-01T03:04:21.229Z,94953.16
2023-02-01T03:06:55.013Z,94941.09
2023-02-01T03:09:30.380Z,94944.00
2023-02-01T03:12:22.541Z,94945.47
2023-02-01T03:14:58.528Z,94949.16
2023-02-01T03:17:35.427Z,94955.25
2023-02-01T03:20:08.054Z,94955.53
2023-02-01T03:22:41.758Z,94955.03
2023-02-01T03:25:16.433Z,94962.84
2023-02-01T03:27:54.648Z,94955.53
2023-02-01T03:30:27.132Z,94942.81
2023-02-01T03:33:01.522Z,94946.00
2023-02-01T03:35:41.203Z,94946.63
2023-02-01T03:38:21.233Z,94952.53
2023-02-01T03:40:56.569Z,94949.75
2023-02-01T03:43:31.433Z,94958.50
2023-02-01T03:46:05.701Z,94960.91
2023-02-01T03:48:37.070Z,94953.47
2023-02-01T03:51:09.459Z,94956.81
2023-02-01T03:53:42.667Z,94960.88
2023-02-01T03:56:13.076Z,94949.28
2023-02-01T03:58:42.594Z,94964.09
2023-02-01T04:01:11.727Z,94978.75
2023-02-01T04:03:42.380Z,94973.38
2023-02-01T04:06:12.781Z,94962.78
2023-02-01T04:08:43.622Z,94980.22
2023-02-01T04:11:12.692Z,94976.28
2023-02-01T04:13:41.898Z,94977.19
2023-02-01T04:16:10.910Z,94972.97
2023-02-01T04:18:40.024Z,94973.63
2023-02-01T04:21:09.634Z,94974.25
2023-02-01T04:23:38.698Z,94971.19
2023-02-01T04:26:09.140Z,94980.16
2023-02-01T04:28:39.334Z,94980.94
2023-02-01T04:31:08.306Z,94989.97
2023-02-01T04:33:38.057Z,94982.25
2023-02-01T04:36:07.432Z,94987.28
2023-02-01T04:38:36.493Z,94988.78
2023-02-01T04:41:06.357Z,94980.78
2023-02-01T04:43:37.298Z,94984.38
2023-02-01T04:46:06.998Z,94990.78
2023-02-01T04:48:36.091Z,94988.78
2023-02-01T04:51:05.267Z,95003.03
2023-02-01T04:53:34.317Z,94992.59
2023-02-01T04:56:03.377Z,94990.00
2023-02-01T04:58:32.418Z,95014.41
2023-02-01T05:01:05.829Z,95007.22
2023-02-01T05:03:36.023Z,95007.31
2023-02-01T05:06:06.122Z,95010.19
2023-02-01T05:08:38.681Z,95005.19
2023-02-01T05:11:07.928Z,95004.38
2023-02-01T05:13:50.992Z,95006.34
2023-02-01T05:16:21.433Z,95002.69
2023-02-01T05:18:52.127Z,95009.16
2023-02-01T05:21:21.547Z,95015.88
2023-02-01T05:24:08.638Z,95018.16
2023-02-01T05:26:38.829Z,95014.09
2023-02-01T05:29:08.461Z,95024.69
2023-02-01T05:31:39.754Z,95010.66
2023-02-01T05:34:09.866Z,95017.69
2023-02-01T05:36:38.932Z,95015.63
2023-02-01T05:39:08.039Z,95010.50
2023-02-01T05:41:37.253Z,95017.50
2023-02-01T05:44:08.538Z,95023.03
2023-02-01T05:46:40.111Z,95026.25
2023-02-01T05:49:09.566Z,95022.03
2023-02-01T05:51:38.696Z,95022.94
2023-02-01T05:54:07.918Z,95030.13
2023-02-01T05:56:36.913Z,95032.06
2023-02-01T05:59:05.934Z,95030.88
2023-02-01T06:01:35.654Z,95021.19
2023-02-01T06:04:06.835Z,95034.69
2023-02-01T06:06:37.973Z,95023.25
2023-02-01T06:09:07.132Z,95028.22
2023-02-01T06:11:36.877Z,95029.38
2023-02-01T06:14:05.931Z,95032.88
2023-02-01T06:16:35.130Z,95034.50
2023-02-01T06:19:05.721Z,95033.81
2023-02-01T06:21:35.358Z,95037.84
2023-02-01T06:24:04.536Z,95041.38
2023-02-01T06:26:33.497Z,95040.28
2023-02-01T06:29:02.603Z,95044.34
2023-02-01T06:31:33.929Z,95043.34
2023-02-01T06:34:04.243Z,95046.78
2023-02-01T06:36:34.729Z,95050.03
2023-02-01T06:39:04.429Z,95043.53
2023-02-01T06:41:35.770Z,95047.13
2023-02-01T06:44:04.982Z,95056.66
2023-02-01T06:46:34.211Z,95065.03
2023-02-01T06:49:03.321Z,95073.13
2023-02-01T06:51:33.814Z,95066.66
2023-02-01T06:54:03.109Z,95070.91
2023-02-01T06:56:32.749Z,95068.72
2023-02-01T06:59:01.904Z,95072.28
2023-02-01T07:01:32.254Z,95082.53
2023-02-01T07:04:01.356Z,95080.38
2023-02-01T07:06:31.060Z,95085.41
2023-02-01T07:09:01.920Z,95084.91
2023-02-01T07:11:31.969Z,95092.63
2023-02-01T07:14:02.524Z,95103.38
2023-02-01T07:16:32.531Z,95104.19
2023-02-01T07:19:01.812Z,95103.63
2023-02-01T07:21:30.887Z,95092.19
2023-02-01T07:24:02.374Z,95101.69
2023-02-01T07:26:32.003Z,95099.06
2023-02-01T07:29:01.119Z,95102.47
2023-02-01T07:31:30.283Z,95114.44
2023-02-01T07:34:00.776Z,95117.63
2023-02-01T07:36:30.029Z,95112.63
2023-02-01T07:39:01.567Z,95124.59
2023-02-01T07:41:31.868Z,95126.16
2023-02-01T07:44:01.071Z,95123.47
2023-02-01T07:46:30.763Z,95125.81
2023-02-01T07:49:00.824Z,95136.56
2023-02-01T07:51:32.403Z,95129.06
2023-02-01T07:54:02.935Z,95131.81
2023-02-01T07:56:32.013Z,95122.28
2023-02-01T07:59:01.918Z,95121.66
2023-02-01T08:01:31.809Z,95128.41
2023-02-01T08:04:03.268Z,95120.94
2023-02-01T08:06:34.016Z,95119.09
2023-02-01T08:09:05.968Z,95122.66
2023-02-01T08:11:35.375Z,95138.50
2023-02-01T08:14:04.619Z,95127.81
2023-02-01T08:16:36.392Z,95144.13
2023-02-01T08:19:05.792Z,95131.56
2023-02-01T08:21:38.637Z,95144.00
2023-02-01T08:24:11.650Z,95150.41
2023-02-01T08:26:40.421Z,95146.34
2023-02-01T08:29:11.701Z,95140.94
2023-02-01T08:31:43.078Z,95145.34
2023-02-01T08:34:13.445Z,95140.19
2023-02-01T08:36:43.123Z,95142.44
2023-02-01T08:39:14.575Z,95144.72
2023-02-01T08:42:04.149Z,95150.38
2023-02-01T08:44:34.505Z,95145.75
2023-02-01T08:47:04.185Z,95141.06
2023-02-01T08:49:33.438Z,95147.44
2023-02-01T08:52:07.206Z,95147.16
2023-02-01T08:54:43.150Z,95148.66
2023-02-01T08:57:12.249Z,95149.84
2023-02-01T08:59:41.450Z,95153.59
2023-02-01T09:02:14.540Z,95160.75
2023-02-01T09:04:43.387Z,95153.91
2023-02-01T09:07:14.250Z,95165.03
2023-02-01T09:09:44.992Z,95155.06
2023-02-01T09:12:14.226Z,95158.88
2023-02-01T09:14:44.479Z,95157.75
2023-02-01T09:17:15.325Z,95168.41
2023-02-01T09:19:44.427Z,95166.50
2023-02-01T09:22:14.122Z,95148.63
2023-02-01T09:24:44.902Z,95170.81
2023-02-01T09:27:14.631Z,95161.19
2023-02-01T09:29:43.824Z,95164.25
2023-02-01T09:32:13.105Z,95156.63
2023-02-01T09:34:42.250Z,95144.47
2023-02-01T09:37:12.045Z,95139.19
2023-02-01T09:39:41.606Z,95133.31
2023-02-01T09:42:24.959Z,95126.84
2023-02-01T09:45:01.899Z,95111.59
2023-02-01T09:47:32.959Z,95097.03
2023-02-01T09:50:06.121Z,95105.41
2023-02-01T09:52:39.078Z,95100.22
2023-02-01T09:55:17.876Z,95096.97
2023-02-01T09:57:53.602Z,95106.09
2023-02-01T10:00:28.146Z,95111.75
2023-02-01T10:02:58.174Z,95096.47
2023-02-01T10:05:52.620Z,95090.75
2023-02-01T10:08:28.766Z,95096.56
2023-02-01T10:11:07.800Z,95089.41
2023-02-01T10:13:51.876Z,95092.59
2023-02-01T10:16:34.330Z,95080.31
2023-02-01T10:19:20.386Z,95087.53
2023-02-01T10:21:57.134Z,95079.53
2023-02-01T10:24:37.479Z,95087.22
2023-02-01T10:27:15.313Z,95086.22
2023-02-01T10:29:48.051Z,95089.72
2023-02-01T10:32:19.212Z,95093.09
2023-02-01T10:34:54.914Z,95095.00
2023-02-01T10:37:30.232Z,95095.63
2023-02-01T10:40:02.966Z,95096.47
2023-02-01T10:42:34.608Z,95085.53
2023-02-01T10:45:06.837Z,95094.63
2023-02-01T10:47:35.890Z,95089.34
2023-02-01T10:50:19.354Z,95082.06
2023-02-01T10:52:54.630Z,95080.03
2023-02-01T10:55:34.160Z,95082.28
2023-02-01T10:58:05.372Z,95083.88
2023-02-01T11:00:46.604Z,95076.03
2023-02-01T11:03:34.821Z,95078.06
2023-02-01T11:06:05.460Z,95076.63
2023-02-01T11:08:35.305Z,95073.41
2023-02-01T11:11:07.189Z,95067.53
2023-02-01T11:13:41.278Z,95068.56
2023-02-01T11:16:17.103Z,95055.03
2023-02-01T11:18:46.288Z,95046.13
2023-02-01T11:21:17.680Z,95045.31
2023-02-01T11:23:48.024Z,95048.97
2023-02-01T11:26:24.546Z,95042.72
2023-02-01T11:29:00.246Z,95044.25
2023-02-01T11:31:32.786Z,95037.00
2023-02-01T11:34:07.327Z,95030.91
2023-02-01T11:36:38.428Z,95037.84
2023-02-01T11:39:19.815Z,95031.34
2023-02-01T11:41:59.951Z,95023.97
2023-02-01T11:44:34.334Z,95028.28
2023-02-01T11:47:27.497Z,95023.81
2023-02-01T11:49:59.592Z,95016.13
2023-02-01T11:52:45.818Z,95015.22
2023-02-01T11:55:34.717Z,95024.63
2023-02-01T11:58:16.976Z,95014.34
2023-02-01T12:01:09.328Z,95007.16
2023-02-01T12:04:15.410Z,95000.16
2023-02-01T12:07:06.859Z,94998.03
2023-02-01T12:09:56.816Z,95005.88
2023-02-01T12:12:32.008Z,95005.88
2023-02-01T12:15:25.068Z,95002.31
2023-02-01T12:18:18.884Z,94990.47
2023-02-01T12:21:03.609Z,94996.56
2023-02-01T12:24:03.190Z,94994.03
2023-02-01T12:26:53.085Z,94996.63
2023-02-01T12:29:42.833Z,94990.75
2023-02-01T12:32:28.434Z,95001.34
2023-02-01T12:35:15.741Z,95004.47
2023-02-01T12:37:57.985Z,94999.28
2023-02-01T12:40:46.286Z,94990.56
2023-02-01T12:43:23.024Z,94999.41
2023-02-01T12:45:57.225Z,95008.22
2023-02-01T12:48:34.544Z,94998.81
2023-02-01T12:51:07.451Z,94991.28
2023-02-01T12:53:48.184Z,94996.34
2023-02-01T12:56:23.855Z,94991.28
2023-02-01T12:58:55.899Z,94994.94
2023-02-01T13:01:30.702Z,94988.53
2023-02-01T13:04:10.846Z,94991.84
2023-02-01T13:06:45.859Z,94987.03
2023-02-01T13:09:25.249Z,94992.88
2023-02-01T13:12:00.473Z,94983.91
2023-02-01T13:14:40.117Z,94982.59
2023-02-01T13:17:17.447Z,94987.59
2023-02-01T13:19:52.559Z,94987.56
2023-02-01T13:22:28.207Z,94985.63
2023-02-01T13:25:01.391Z,94981.63
2023-02-01T13:27:35.257Z,94978.44
2023-02-01T13:30:10.100Z,94968.75
2023-02-01T13:33:54.735Z,94976.94
2023-02-01T13:36:42.950Z,94971.53
2023-02-01T13:39:42.698Z,94974.69
2023-02-01T13:42:18.665Z,94970.47
2023-02-01T13:44:52.098Z,94967.06
2023-02-01T13:47:30.888Z,94966.25
2023-02-01T13:50:03.337Z,94959.50
2023-02-01T13:52:39.120Z,94963.91
2023-02-01T13:55:27.505Z,94965.75
2023-02-01T13:58:05.510Z,94972.50
2023-02-01T14:00:38.604Z,94981.38
2023-02-01T14:03:44.881Z,94981.66
2023-02-01T14:06:46.134Z,94978.09
2023-02-01T14:09:21.685Z,94980.78
2023-02-01T14:11:52.645Z,94979.00
2023-02-01T14:14:45.985Z,94977.19
2023-02-01T14:17:43.713Z,94974.69
2023-02-01T14:20:55.735Z,94971.34
2023-02-01T14:23:29.001Z,94971.41
2023-02-01T14:26:11.811Z,94969.22
2023-02-01T14:28:48.625Z,94965.03
2023-02-01T14:31:34.143Z,94967.66
2023-02-01T14:34:14.091Z,94970.03
2023-02-01T14:36:48.059Z,94970.09
2023-02-01T14:39:25.613Z,94967.81
2023-02-01T14:41:59.780Z,94974.22
2023-02-01T14:44:35.795Z,94972.53
2023-02-01T14:47:33.975Z,94969.03
2023-02-01T14:50:29.749Z,94959.50
2023-02-01T14:53:14.031Z,94967.53
2023-02-01T14:55:46.992Z,94971.31
2023-02-01T14:58:23.004Z,94971.63
2023-02-01T15:00:55.998Z,94962.63
2023-02-01T15:03:44.378Z,94959.06
2023-02-01T15:06:31.559Z,94950.44
2023-02-01T15:09:05.977Z,94951.47
2023-02-01T15:11:35.035Z,94944.44
2023-02-01T15:14:04.053Z,94949.44
2023-02-01T15:16:33.611Z,94943.63
2023-02-01T15:19:11.233Z,94948.47
2023-02-01T15:21:52.152Z,94951.72
2023-02-01T15:24:24.468Z,94952.94
2023-02-01T15:26:55.144Z,94950.50
2023-02-01T15:29:28.958Z,94946.13
2023-02-01T15:31:58.022Z,94956.44
2023-02-01T15:34:47.631Z,94952.28
2023-02-01T15:37:19.791Z,94951.25
2023-02-01T15:40:23.249Z,94940.16
2023-02-01T15:42:55.692Z,94940.38
2023-02-01T15:45:28.128Z,94946.44
2023-02-01T15:47:59.613Z,94940.63
2023-02-01T15:50:32.645Z,94947.28
2023-02-01T15:53:03.382Z,94943.63
2023-02-01T15:55:39.495Z,94944.69
2023-02-01T15:58:11.778Z,94959.47
2023-02-01T16:00:47.345Z,94966.53
2023-02-01T16:03:34.924Z,94957.44
2023-02-01T16:06:06.683Z,94966.72
2023-02-01T16:08:39.061Z,94974.81
2023-02-01T16:11:26.136Z,94969.97
2023-02-01T16:13:56.107Z,94976.81
2023-02-01T16:16:27.398Z,94976.00
2023-02-01T16:18:56.832Z,94976.41
2023-02-01T16:21:26.502Z,94982.47
2023-02-01T16:23:57.246Z,94984.47
2023-02-01T16:26:26.380Z,94981.25
2023-02-01T16:28:56.256Z,94977.59
2023-02-01T16:31:29.903Z,94988.28
2023-02-01T16:33:59.714Z,94982.84
2023-02-01T16:36:29.807Z,94987.25
2023-02-01T16:39:01.613Z,94988.84
2023-02-01T16:41:30.703Z,94988.44
2023-02-01T16:43:59.876Z,94986.63
2023-02-01T16:46:34.907Z,94988.81
2023-02-01T16:49:05.047Z,94987.59
2023-02-01T16:51:36.283Z,94996.88
2023-02-01T16:54:06.984Z,94990.22
2023-02-01T16:56:37.524Z,94995.84
2023-02-01T16:59:09.717Z,94986.38
2023-02-01T17:01:40.069Z,94987.00
2023-02-01T17:04:09.424Z,94986.81
2023-02-01T17:06:40.865Z,94977.31
2023-02-01T17:09:12.146Z,94975.09
2023-02-01T17:11:41.864Z,94969.03
2023-02-01T17:14:18.479Z,94972.03
2023-02-01T17:16:49.301Z,94978.44
2023-02-01T17:19:24.702Z,94986.50
2023-02-01T17:21:56.982Z,94986.25
2023-02-01T17:24:42.486Z,94980.81
2023-02-01T17:27:17.353Z,94976.75
2023-02-01T17:29:48.773Z,94974.53
2023-02-01T17:32:21.042Z,94975.53
2023-02-01T17:34:51.153Z,94978.88
2023-02-01T17:37:26.544Z,94973.44
2023-02-01T17:39:58.166Z,94966.41
2023-02-01T17:42:30.231Z,94966.00
2023-02-01T17:45:02.113Z,94964.78
2023-02-01T17:47:33.813Z,94959.94
2023-02-01T17:50:03.665Z,94968.75
2023-02-01T17:52:33.689Z,94966.13
2023-02-01T17:55:05.089Z,94970.75
2023-02-01T17:57:34.153Z,94973.81
2023-02-01T18:00:03.218Z,94972.56
2023-02-01T18:02:33.879Z,94980.22
2023-02-01T18:05:03.060Z,94977.41
2023-02-01T18:07:32.337Z,94973.34
2023-02-01T18:10:02.325Z,94978.34
2023-02-01T18:12:37.850Z,94984.97
2023-02-01T18:15:18.319Z,94974.22
2023-02-01T18:17:49.144Z,94971.81
2023-02-01T18:20:20.780Z,94969.97
2023-02-01T18:22:51.196Z,94964.44
2023-02-01T18:25:23.178Z,94962.56
2023-02-01T18:27:56.159Z,94970.78
2023-02-01T18:30:27.058Z,94968.94
2023-02-01T18:32:57.081Z,94964.06
2023-02-01T18:35:30.131Z,94956.88
2023-02-01T18:38:00.840Z,94950.06
2023-02-01T18:40:33.093Z,94959.31
2023-02-01T18:43:05.172Z,94958.44
2023-02-01T18:45:38.611Z,94951.00
2023-02-01T18:48:09.006Z,94941.72
2023-02-01T18:50:40.095Z,94945.06
2023-02-01T18:53:14.499Z,94945.50
2023-02-01T18:55:43.623Z,94946.50
2023-02-01T18:58:16.572Z,94950.28
2023-02-01T19:00:47.672Z,94944.47
2023-02-01T19:03:18.750Z,94956.75
2023-02-01T19:05:48.464Z,94961.56
2023-02-01T19:08:17.604Z,94956.09
2023-02-01T19:10:46.728Z,94966.47
2023-02-01T19:13:21.015Z,94958.31
2023-02-01T19:15:50.146Z,94959.56
2023-02-01T19:18:21.398Z,94951.00
2023-02-01T19:20:54.955Z,94945.44
2023-02-01T19:23:24.523Z,94950.69
2023-02-01T19:25:53.763Z,94943.19
2023-02-01T19:28:25.641Z,94945.81
2023-02-01T19:31:03.181Z,94954.03
2023-02-01T19:33:32.836Z,94943.38
2023-02-01T19:36:03.679Z,94946.53
2023-02-01T19:38:33.297Z,94948.16
2023-02-01T19:41:03.245Z,94939.81
2023-02-01T19:43:39.728Z,94946.66
2023-02-01T19:46:08.907Z,94948.28
2023-02-01T19:48:38.478Z,94945.03
2023-02-01T19:51:08.685Z,94944.06
2023-02-01T19:53:38.641Z,94949.81
2023-02-01T19:56:08.966Z,94941.72
2023-02-01T19:58:39.589Z,94944.50
2023-02-01T20:01:07.912Z,94938.28
2023-02-01T20:03:37.119Z,94939.38
2023-02-01T20:06:07.930Z,94937.03
2023-02-01T20:08:37.140Z,94937.03
2023-02-01T20:11:09.677Z,94936.72
2023-02-01T20:13:40.981Z,94942.75
2023-02-01T20:16:10.600Z,94935.53
2023-02-01T20:18:40.122Z,94938.41
2023-02-01T20:21:09.748Z,94938.22
2023-02-01T20:23:39.370Z,94944.88
2023-02-01T20:26:12.101Z,94940.63
2023-02-01T20:28:42.780Z,94937.63
2023-02-01T20:31:12.912Z,94937.97
2023-02-01T20:33:41.961Z,94935.00
2023-02-01T20:36:11.670Z,94941.44
2023-02-01T20:38:41.395Z,94932.63
2023-02-01T20:41:11.037Z,94926.56
2023-02-01T20:43:41.619Z,94928.34
2023-02-01T20:46:10.919Z,94930.19
2023-02-01T20:48:43.821Z,94924.22
2023-02-01T20:51:14.499Z,94929.78
2023-02-01T20:53:45.004Z,94924.97
2023-02-01T20:56:15.023Z,94922.53
2023-02-01T20:58:46.157Z,94929.38
2023-02-01T21:01:16.777Z,94925.53
2023-02-01T21:03:46.436Z,94930.94
2023-02-01T21:06:15.621Z,94930.94
2023-02-01T21:08:44.768Z,94933.78
2023-02-01T21:11:16.123Z,94934.38
2023-02-01T21:13:51.894Z,94932.88
2023-02-01T21:16:23.982Z,94934.91
2023-02-01T21:18:53.916Z,94943.50
2023-02-01T21:21:23.078Z,94938.88
2023-02-01T21:23:53.361Z,94946.44
2023-02-01T21:26:24.123Z,94940.44
2023-02-01T21:28:58.062Z,94942.25
2023-02-01T21:31:27.777Z,94948.75
2023-02-01T21:33:56.936Z,94950.97
2023-02-01T21:36:26.349Z,94955.59
2023-02-01T21:39:03.952Z,94961.22
2023-02-01T21:41:54.104Z,94950.47
2023-02-01T21:44:25.050Z,94964.56
2023-02-01T21:46:55.853Z,94965.16
2023-02-01T21:49:26.507Z,94960.56
2023-02-01T21:51:55.537Z,94953.72
2023-02-01T21:54:24.497Z,94958.41
2023-02-01T21:56:53.799Z,94969.28
2023-02-01T21:59:24.280Z,94963.66
2023-02-01T22:01:53.395Z,94954.84
2023-02-01T22:04:22.437Z,94956.00
2023-02-01T22:06:51.664Z,94959.94
2023-02-01T22:09:24.720Z,94964.56
2023-02-01T22:11:53.940Z,94954.97
2023-02-01T22:14:24.668Z,94969.59
2023-02-01T22:16:54.399Z,94980.66
2023-02-01T22:19:23.473Z,94972.41
2023-02-01T22:21:54.575Z,94972.91
2023-02-01T22:24:24.430Z,94973.13
2023-02-01T22:26:54.200Z,94973.41
2023-02-01T22:29:27.963Z,94978.44
2023-02-01T22:31:57.216Z,94969.59
2023-02-01T22:34:26.388Z,94976.06
2023-02-01T22:36:55.978Z,94977.50
2023-02-01T22:39:26.199Z,94981.88
2023-02-01T22:41:56.586Z,94969.34
2023-02-01T22:44:27.047Z,94981.06
2023-02-01T22:46:56.060Z,94968.16
2023-02-01T22:49:25.126Z,94962.13
2023-02-01T22:51:54.293Z,94953.09
2023-02-01T22:54:23.516Z,94965.38
2023-02-01T22:56:52.767Z,94962.03
2023-02-01T22:59:21.903Z,94970.91
2023-02-01T23:01:52.986Z,94970.66
2023-02-01T23:04:22.116Z,94975.34
2023-02-01T23:06:52.450Z,94974.31
2023-02-01T23:09:23.714Z,94975.56
2023-02-01T23:11:54.150Z,94973.03
2023-02-01T23:14:24.075Z,94962.56
2023-02-01T23:16:54.507Z,94965.78
2023-02-01T23:19:23.900Z,94970.19
2023-02-01T23:21:52.801Z,94960.94
2023-02-01T23:24:22.337Z,94971.59
2023-02-01T23:26:51.486Z,94963.66
2023-02-01T23:29:20.947Z,94963.28
2023-02-01T23:31:50.011Z,94963.06
2023-02-01T23:34:20.481Z,94959.56
2023-02-01T23:36:49.499Z,94963.56
2023-02-01T23:39:18.862Z,94964.56
2023-02-01T23:41:48.386Z,94961.31
2023-02-01T23:44:17.940Z,94960.25
2023-02-01T23:46:47.936Z,94962.06
2023-02-01T23:49:18.399Z,94955.19
2023-02-01T23:51:53.164Z,94950.56
2023-02-01T23:54:23.883Z,94956.50
2023-02-01T23:56:53.432Z,94955.34
2023-02-01T23:59:23.941Z,94964.16
